sensor_id;sensor_type;location;lat;lon;timestamp;temperature;humidity
44886;DHT22;36669;51.428;21.162;2023-01-30T00:01:55;0.30;99.90
44886;DHT22;36669;51.428;21.162;2023-01-30T00:04:23;0.30;99.90
44886;DHT22;36669;51.428;21.162;2023-01-30T00:06:51;0.30;99.90
44886;DHT22;36669;51.428;21.162;2023-01-30T00:09:21;0.30;99.90
44886;DHT22;36669;51.428;21.162;2023-01-30T00:11:46;0.30;99.90
44886;DHT22;36669;51.428;21.162;2023-01-30T00:14:13;0.30;99.90
44886;DHT22;36669;51.428;21.162;2023-01-30T00:16:38;0.30;99.90
44886;DHT22;36669;51.428;21.162;2023-01-30T00:19:04;0.30;99.90
44886;DHT22;36669;51.428;21.162;2023-01-30T00:21:31;0.30;99.90
44886;DHT22;36669;51.428;21.162;2023-01-30T00:23:58;0.30;99.90
44886;DHT22;36669;51.428;21.162;2023-01-30T00:26:28;0.30;99.90
44886;DHT22;36669;51.428;21.162;2023-01-30T00:28:55;0.30;99.90
44886;DHT22;36669;51.428;21.162;2023-01-30T00:31:23;0.30;99.90
44886;DHT22;36669;51.428;21.162;2023-01-30T00:33:49;0.30;99.90
44886;DHT22;36669;51.428;21.162;2023-01-30T00:36:16;0.40;99.90
44886;DHT22;36669;51.428;21.162;2023-01-30T00:38:43;0.40;99.90
44886;DHT22;36669;51.428;21.162;2023-01-30T00:41:10;0.40;99.90
44886;DHT22;36669;51.428;21.162;2023-01-30T00:43:40;0.40;99.90
44886;DHT22;36669;51.428;21.162;2023-01-30T00:46:32;0.40;99.90
44886;DHT22;36669;51.428;21.162;2023-01-30T00:49:20;0.40;99.90
44886;DHT22;36669;51.428;21.162;2023-01-30T00:51:48;0.40;99.90
44886;DHT22;36669;51.428;21.162;2023-01-30T00:54:16;0.40;99.90
44886;DHT22;36669;51.428;21.162;2023-01-30T00:56:43;0.40;99.90
44886;DHT22;36669;51.428;21.162;2023-01-30T00:59:10;0.40;99.90
44886;DHT22;36669;51.428;21.162;2023-01-30T01:01:37;0.40;99.90
44886;DHT22;36669;51.428;21.162;2023-01-30T01:04:04;0.40;99.90
44886;DHT22;36669;51.428;21.162;2023-01-30T01:06:33;0.40;99.90
44886;DHT22;36669;51.428;21.162;2023-01-30T01:09:01;0.40;99.90
44886;DHT22;36669;51.428;21.162;2023-01-30T01:11:28;0.40;99.90
44886;DHT22;36669;51.428;21.162;2023-01-30T01:13:58;0.50;99.90
44886;DHT22;36669;51.428;21.162;2023-01-30T01:16:26;0.40;99.90
44886;DHT22;36669;51.428;21.162;2023-01-30T01:19:02;0.50;99.90
44886;DHT22;36669;51.428;21.162;2023-01-30T01:21:29;0.40;99.90
44886;DHT22;36669;51.428;21.162;2023-01-30T01:23:58;0.50;99.90
44886;DHT22;36669;51.428;21.162;2023-01-30T01:26:26;0.50;99.90
44886;DHT22;36669;51.428;21.162;2023-01-30T01:28:58;0.50;99.90
44886;DHT22;36669;51.428;21.162;2023-01-30T01:31:26;0.40;99.90
44886;DHT22;36669;51.428;21.162;2023-01-30T01:33:53;0.40;99.90
44886;DHT22;36669;51.428;21.162;2023-01-30T01:36:21;0.40;99.90
44886;DHT22;36669;51.428;21.162;2023-01-30T01:38:48;0.40;99.90
44886;DHT22;36669;51.428;21.162;2023-01-30T01:41:17;0.40;99.90
44886;DHT22;36669;51.428;21.162;2023-01-30T01:49:35;0.40;99.90
44886;DHT22;36669;51.428;21.162;2023-01-30T01:52:16;0.40;99.90
44886;DHT22;36669;51.428;21.162;2023-01-30T01:54:59;0.40;99.90
44886;DHT22;36669;51.428;21.162;2023-01-30T01:57:58;0.40;99.90
44886;DHT22;36669;51.428;21.162;2023-01-30T02:00:24;0.40;99.90
44886;DHT22;36669;51.428;21.162;2023-01-30T02:03:00;0.40;99.90
44886;DHT22;36669;51.428;21.162;2023-01-30T02:05:31;0.40;99.90
44886;DHT22;36669;51.428;21.162;2023-01-30T02:08:21;0.40;99.90
44886;DHT22;36669;51.428;21.162;2023-01-30T02:13:46;0.40;99.90
44886;DHT22;36669;51.428;21.162;2023-01-30T02:16:16;0.40;99.90
44886;DHT22;36669;51.428;21.162;2023-01-30T02:18:44;0.40;99.90
44886;DHT22;36669;51.428;21.162;2023-01-30T02:21:51;0.40;99.90
44886;DHT22;36669;51.428;21.162;2023-01-30T02:40:41;0.30;99.90
44886;DHT22;36669;51.428;21.162;2023-01-30T02:43:23;0.30;99.90
44886;DHT22;36669;51.428;21.162;2023-01-30T02:46:35;0.20;99.90
44886;DHT22;36669;51.428;21.162;2023-01-30T02:49:13;0.20;99.90
44886;DHT22;36669;51.428;21.162;2023-01-30T02:51:43;0.20;99.90
44886;DHT22;36669;51.428;21.162;2023-01-30T02:54:13;0.20;99.90
44886;DHT22;36669;51.428;21.162;2023-01-30T02:56:52;0.10;99.90
44886;DHT22;36669;51.428;21.162;2023-01-30T02:59:31;0.10;99.90
44886;DHT22;36669;51.428;21.162;2023-01-30T03:11:03;0.10;99.90
44886;DHT22;36669;51.428;21.162;2023-01-30T03:13:57;0.10;99.90
44886;DHT22;36669;51.428;21.162;2023-01-30T03:16:42;0.20;99.90
44886;DHT22;36669;51.428;21.162;2023-01-30T03:19:12;0.20;99.90
44886;DHT22;36669;51.428;21.162;2023-01-30T03:21:42;0.20;99.90
44886;DHT22;36669;51.428;21.162;2023-01-30T03:24:13;0.20;99.90
44886;DHT22;36669;51.428;21.162;2023-01-30T03:26:44;0.20;99.90
44886;DHT22;36669;51.428;21.162;2023-01-30T03:29:11;0.20;99.90
44886;DHT22;36669;51.428;21.162;2023-01-30T03:31:38;0.20;99.90
44886;DHT22;36669;51.428;21.162;2023-01-30T03:34:05;0.20;99.90
44886;DHT22;36669;51.428;21.162;2023-01-30T03:36:31;0.20;99.90
44886;DHT22;36669;51.428;21.162;2023-01-30T03:38:58;0.30;99.90
44886;DHT22;36669;51.428;21.162;2023-01-30T03:41:27;0.30;99.90
44886;DHT22;36669;51.428;21.162;2023-01-30T03:43:55;0.20;99.90
44886;DHT22;36669;51.428;21.162;2023-01-30T03:46:24;0.20;99.90
44886;DHT22;36669;51.428;21.162;2023-01-30T03:48:52;0.20;99.90
44886;DHT22;36669;51.428;21.162;2023-01-30T03:51:18;0.30;99.90
44886;DHT22;36669;51.428;21.162;2023-01-30T03:53:45;0.30;99.90
44886;DHT22;36669;51.428;21.162;2023-01-30T03:56:12;0.30;99.90
44886;DHT22;36669;51.428;21.162;2023-01-30T03:58:40;0.20;99.90
44886;DHT22;36669;51.428;21.162;2023-01-30T04:01:07;0.30;99.90
44886;DHT22;36669;51.428;21.162;2023-01-30T04:03:34;0.30;99.90
44886;DHT22;36669;51.428;21.162;2023-01-30T04:06:03;0.30;99.90
44886;DHT22;36669;51.428;21.162;2023-01-30T04:08:30;0.20;99.90
44886;DHT22;36669;51.428;21.162;2023-01-30T04:10:58;0.30;99.90
44886;DHT22;36669;51.428;21.162;2023-01-30T04:13:24;0.20;99.90
44886;DHT22;36669;51.428;21.162;2023-01-30T04:15:51;0.20;99.90
44886;DHT22;36669;51.428;21.162;2023-01-30T04:18:18;0.20;99.90
44886;DHT22;36669;51.428;21.162;2023-01-30T04:20:46;0.20;99.90
44886;DHT22;36669;51.428;21.162;2023-01-30T04:23:14;0.20;99.90
44886;DHT22;36669;51.428;21.162;2023-01-30T04:25:45;0.20;99.90
44886;DHT22;36669;51.428;21.162;2023-01-30T04:28:12;0.20;99.90
44886;DHT22;36669;51.428;21.162;2023-01-30T04:30:39;0.20;99.90
44886;DHT22;36669;51.428;21.162;2023-01-30T04:33:05;0.20;99.90
44886;DHT22;36669;51.428;21.162;2023-01-30T04:35:32;0.20;99.90
44886;DHT22;36669;51.428;21.162;2023-01-30T04:37:58;0.20;99.90
44886;DHT22;36669;51.428;21.162;2023-01-30T04:40:27;0.20;99.90
44886;DHT22;36669;51.428;21.162;2023-01-30T04:42:55;0.20;99.90
44886;DHT22;36669;51.428;21.162;2023-01-30T04:45:22;0.20;99.90
44886;DHT22;36669;51.428;21.162;2023-01-30T04:47:48;0.20;99.90
44886;DHT22;36669;51.428;21.162;2023-01-30T04:50:15;0.20;99.90
44886;DHT22;36669;51.428;21.162;2023-01-30T04:52:42;0.20;99.90
44886;DHT22;36669;51.428;21.162;2023-01-30T04:55:09;0.20;99.90
44886;DHT22;36669;51.428;21.162;2023-01-30T04:57:37;0.20;99.90
44886;DHT22;36669;51.428;21.162;2023-01-30T05:00:05;0.30;99.90
44886;DHT22;36669;51.428;21.162;2023-01-30T05:02:31;0.30;99.90
44886;DHT22;36669;51.428;21.162;2023-01-30T05:04:58;0.30;99.90
44886;DHT22;36669;51.428;21.162;2023-01-30T05:07:27;0.20;99.90
44886;DHT22;36669;51.428;21.162;2023-01-30T05:09:54;0.20;99.90
44886;DHT22;36669;51.428;21.162;2023-01-30T05:12:22;0.20;99.90
44886;DHT22;36669;51.428;21.162;2023-01-30T05:14:49;0.20;99.90
44886;DHT22;36669;51.428;21.162;2023-01-30T05:17:17;0.20;99.90
44886;DHT22;36669;51.428;21.162;2023-01-30T05:19:43;0.20;99.90
44886;DHT22;36669;51.428;21.162;2023-01-30T05:22:12;0.20;99.90
44886;DHT22;36669;51.428;21.162;2023-01-30T05:24:40;0.20;99.90
44886;DHT22;36669;51.428;21.162;2023-01-30T05:27:06;0.10;99.90
44886;DHT22;36669;51.428;21.162;2023-01-30T05:29:35;0.10;99.90
44886;DHT22;36669;51.428;21.162;2023-01-30T05:32:03;0.10;99.90
44886;DHT22;36669;51.428;21.162;2023-01-30T05:34:29;0.10;99.90
44886;DHT22;36669;51.428;21.162;2023-01-30T05:36:57;0.00;99.90
44886;DHT22;36669;51.428;21.162;2023-01-30T05:39:22;-0.10;99.90
44886;DHT22;36669;51.428;21.162;2023-01-30T05:41:49;0.00;99.90
44886;DHT22;36669;51.428;21.162;2023-01-30T05:44:17;0.00;99.90
44886;DHT22;36669;51.428;21.162;2023-01-30T05:46:45;0.00;99.90
44886;DHT22;36669;51.428;21.162;2023-01-30T05:49:12;0.00;99.90
44886;DHT22;36669;51.428;21.162;2023-01-30T05:51:39;-0.10;99.90
44886;DHT22;36669;51.428;21.162;2023-01-30T05:54:06;-0.10;99.90
44886;DHT22;36669;51.428;21.162;2023-01-30T05:56:32;-0.10;99.90
44886;DHT22;36669;51.428;21.162;2023-01-30T05:59:00;-0.10;99.90
44886;DHT22;36669;51.428;21.162;2023-01-30T06:01:28;-0.10;99.90
44886;DHT22;36669;51.428;21.162;2023-01-30T06:03:57;-0.20;99.90
44886;DHT22;36669;51.428;21.162;2023-01-30T06:06:25;-0.10;99.90
44886;DHT22;36669;51.428;21.162;2023-01-30T06:08:56;-0.20;99.90
44886;DHT22;36669;51.428;21.162;2023-01-30T06:11:22;-0.30;99.90
44886;DHT22;36669;51.428;21.162;2023-01-30T06:13:50;-0.30;99.90
44886;DHT22;36669;51.428;21.162;2023-01-30T06:16:17;-0.20;99.90
44886;DHT22;36669;51.428;21.162;2023-01-30T06:18:45;-0.30;99.90
44886;DHT22;36669;51.428;21.162;2023-01-30T06:21:13;-0.20;99.90
44886;DHT22;36669;51.428;21.162;2023-01-30T06:23:44;-0.20;99.90
44886;DHT22;36669;51.428;21.162;2023-01-30T06:26:12;-0.30;99.90
44886;DHT22;36669;51.428;21.162;2023-01-30T06:28:39;-0.20;99.90
44886;DHT22;36669;51.428;21.162;2023-01-30T06:31:10;-0.30;99.90
44886;DHT22;36669;51.428;21.162;2023-01-30T06:33:36;-0.30;99.90
44886;DHT22;36669;51.428;21.162;2023-01-30T06:36:03;-0.40;99.90
44886;DHT22;36669;51.428;21.162;2023-01-30T06:38:30;-0.40;99.90
44886;DHT22;36669;51.428;21.162;2023-01-30T06:40:56;-0.40;99.90
44886;DHT22;36669;51.428;21.162;2023-01-30T06:43:25;-0.40;99.90
44886;DHT22;36669;51.428;21.162;2023-01-30T06:45:53;-0.50;99.90
44886;DHT22;36669;51.428;21.162;2023-01-30T06:48:20;-0.50;99.90
44886;DHT22;36669;51.428;21.162;2023-01-30T06:50:47;-0.50;99.90
44886;DHT22;36669;51.428;21.162;2023-01-30T06:53:14;-0.40;99.90
44886;DHT22;36669;51.428;21.162;2023-01-30T06:55:42;-0.40;99.90
44886;DHT22;36669;51.428;21.162;2023-01-30T06:58:29;-0.50;99.90
44886;DHT22;36669;51.428;21.162;2023-01-30T07:00:56;-0.50;99.90
44886;DHT22;36669;51.428;21.162;2023-01-30T07:03:24;-0.60;99.90
44886;DHT22;36669;51.428;21.162;2023-01-30T07:05:51;-0.70;99.90
44886;DHT22;36669;51.428;21.162;2023-01-30T07:08:20;-0.70;99.90
44886;DHT22;36669;51.428;21.162;2023-01-30T07:10:46;-0.60;99.90
44886;DHT22;36669;51.428;21.162;2023-01-30T07:13:13;-0.70;99.90
44886;DHT22;36669;51.428;21.162;2023-01-30T07:15:40;-0.60;99.90
44886;DHT22;36669;51.428;21.162;2023-01-30T07:18:07;-0.70;99.90
44886;DHT22;36669;51.428;21.162;2023-01-30T07:20:36;-0.80;99.90
44886;DHT22;36669;51.428;21.162;2023-01-30T07:23:02;-0.70;99.90
44886;DHT22;36669;51.428;21.162;2023-01-30T07:25:29;-0.80;99.90
44886;DHT22;36669;51.428;21.162;2023-01-30T07:28:00;-0.80;99.90
44886;DHT22;36669;51.428;21.162;2023-01-30T07:30:29;-0.70;99.90
44886;DHT22;36669;51.428;21.162;2023-01-30T07:33:01;-0.70;99.90
44886;DHT22;36669;51.428;21.162;2023-01-30T07:35:31;-0.60;99.90
44886;DHT22;36669;51.428;21.162;2023-01-30T07:37:58;-0.60;99.90
44886;DHT22;36669;51.428;21.162;2023-01-30T07:40:25;-0.60;99.90
44886;DHT22;36669;51.428;21.162;2023-01-30T07:43:03;-0.60;99.90
44886;DHT22;36669;51.428;21.162;2023-01-30T07:45:41;-0.60;99.90
44886;DHT22;36669;51.428;21.162;2023-01-30T07:48:10;-0.60;99.90
44886;DHT22;36669;51.428;21.162;2023-01-30T07:50:38;-0.60;99.90
44886;DHT22;36669;51.428;21.162;2023-01-30T07:53:06;-0.50;99.90
44886;DHT22;36669;51.428;21.162;2023-01-30T07:55:35;-0.50;99.90
44886;DHT22;36669;51.428;21.162;2023-01-30T07:58:02;-0.50;99.90
44886;DHT22;36669;51.428;21.162;2023-01-30T08:00:31;-0.50;99.90
44886;DHT22;36669;51.428;21.162;2023-01-30T08:02:59;-0.50;99.90
44886;DHT22;36669;51.428;21.162;2023-01-30T08:05:26;-0.40;99.90
44886;DHT22;36669;51.428;21.162;2023-01-30T08:07:58;-0.50;99.90
44886;DHT22;36669;51.428;21.162;2023-01-30T08:10:27;-0.40;99.90
44886;DHT22;36669;51.428;21.162;2023-01-30T08:12:53;-0.40;99.90
44886;DHT22;36669;51.428;21.162;2023-01-30T08:15:20;-0.40;99.90
44886;DHT22;36669;51.428;21.162;2023-01-30T08:17:56;-0.40;99.90
44886;DHT22;36669;51.428;21.162;2023-01-30T08:20:26;-0.40;99.90
44886;DHT22;36669;51.428;21.162;2023-01-30T08:23:00;-0.40;99.90
44886;DHT22;36669;51.428;21.162;2023-01-30T08:25:28;-0.30;99.90
44886;DHT22;36669;51.428;21.162;2023-01-30T08:27:58;-0.20;99.90
44886;DHT22;36669;51.428;21.162;2023-01-30T08:30:28;-0.30;99.90
44886;DHT22;36669;51.428;21.162;2023-01-30T08:32:57;-0.30;99.90
44886;DHT22;36669;51.428;21.162;2023-01-30T08:35:24;-0.20;99.90
44886;DHT22;36669;51.428;21.162;2023-01-30T08:37:51;-0.20;99.90
44886;DHT22;36669;51.428;21.162;2023-01-30T08:40:19;-0.10;99.90
44886;DHT22;36669;51.428;21.162;2023-01-30T08:42:46;-0.20;99.90
44886;DHT22;36669;51.428;21.162;2023-01-30T08:45:13;-0.10;99.90
44886;DHT22;36669;51.428;21.162;2023-01-30T08:47:40;-0.10;99.90
44886;DHT22;36669;51.428;21.162;2023-01-30T08:50:09;-0.10;99.90
44886;DHT22;36669;51.428;21.162;2023-01-30T08:52:36;0.00;99.90
44886;DHT22;36669;51.428;21.162;2023-01-30T08:55:04;0.00;99.90
44886;DHT22;36669;51.428;21.162;2023-01-30T08:57:31;0.00;99.90
44886;DHT22;36669;51.428;21.162;2023-01-30T08:59:59;0.00;99.90
44886;DHT22;36669;51.428;21.162;2023-01-30T09:02:27;0.10;99.90
44886;DHT22;36669;51.428;21.162;2023-01-30T09:04:53;0.10;99.90
44886;DHT22;36669;51.428;21.162;2023-01-30T09:07:20;0.10;99.90
44886;DHT22;36669;51.428;21.162;2023-01-30T09:09:47;0.10;99.90
44886;DHT22;36669;51.428;21.162;2023-01-30T09:12:15;0.20;99.90
44886;DHT22;36669;51.428;21.162;2023-01-30T09:14:42;0.20;99.90
44886;DHT22;36669;51.428;21.162;2023-01-30T09:17:10;0.20;99.90
44886;DHT22;36669;51.428;21.162;2023-01-30T09:19:37;0.20;99.90
44886;DHT22;36669;51.428;21.162;2023-01-30T09:22:05;0.10;99.90
44886;DHT22;36669;51.428;21.162;2023-01-30T09:24:33;0.10;99.90
44886;DHT22;36669;51.428;21.162;2023-01-30T09:27:02;0.10;99.90
44886;DHT22;36669;51.428;21.162;2023-01-30T09:29:31;0.00;99.90
44886;DHT22;36669;51.428;21.162;2023-01-30T09:31:57;0.00;99.90
44886;DHT22;36669;51.428;21.162;2023-01-30T09:34:25;-0.10;99.90
44886;DHT22;36669;51.428;21.162;2023-01-30T09:36:57;-0.10;99.90
44886;DHT22;36669;51.428;21.162;2023-01-30T09:39:25;0.00;99.90
44886;DHT22;36669;51.428;21.162;2023-01-30T09:42:16;0.00;99.90
44886;DHT22;36669;51.428;21.162;2023-01-30T09:47:47;0.10;99.90
44886;DHT22;36669;51.428;21.162;2023-01-30T09:53:34;0.00;99.90
44886;DHT22;36669;51.428;21.162;2023-01-30T09:56:02;-0.10;99.90
44886;DHT22;36669;51.428;21.162;2023-01-30T10:04:36;-0.20;99.90
44886;DHT22;36669;51.428;21.162;2023-01-30T10:10:40;-0.40;99.90
44886;DHT22;36669;51.428;21.162;2023-01-30T10:16:49;-0.40;99.90
44886;DHT22;36669;51.428;21.162;2023-01-30T10:23:09;-0.20;99.90
44886;DHT22;36669;51.428;21.162;2023-01-30T10:25:51;-0.20;99.90
44886;DHT22;36669;51.428;21.162;2023-01-30T10:28:29;-0.10;99.90
44886;DHT22;36669;51.428;21.162;2023-01-30T10:31:09;-0.10;99.90
44886;DHT22;36669;51.428;21.162;2023-01-30T10:33:48;-0.10;99.90
44886;DHT22;36669;51.428;21.162;2023-01-30T10:39:51;0.00;99.90
44886;DHT22;36669;51.428;21.162;2023-01-30T10:42:37;0.00;99.90
44886;DHT22;36669;51.428;21.162;2023-01-30T10:45:14;0.00;99.90
44886;DHT22;36669;51.428;21.162;2023-01-30T10:50:47;0.00;99.90
44886;DHT22;36669;51.428;21.162;2023-01-30T10:58:57;0.10;99.90
44886;DHT22;36669;51.428;21.162;2023-01-30T11:01:44;0.20;99.90
44886;DHT22;36669;51.428;21.162;2023-01-30T11:04:38;0.20;99.90
44886;DHT22;36669;51.428;21.162;2023-01-30T11:07:06;0.30;99.90
44886;DHT22;36669;51.428;21.162;2023-01-30T11:09:45;0.30;99.90
44886;DHT22;36669;51.428;21.162;2023-01-30T11:12:16;0.30;99.90
44886;DHT22;36669;51.428;21.162;2023-01-30T11:14:58;0.40;99.90
44886;DHT22;36669;51.428;21.162;2023-01-30T11:17:43;0.30;99.90
44886;DHT22;36669;51.428;21.162;2023-01-30T11:20:21;0.30;99.90
44886;DHT22;36669;51.428;21.162;2023-01-30T11:22:51;0.30;99.90
44886;DHT22;36669;51.428;21.162;2023-01-30T11:25:28;0.30;99.90
44886;DHT22;36669;51.428;21.162;2023-01-30T11:28:02;0.30;99.90
44886;DHT22;36669;51.428;21.162;2023-01-30T11:30:34;0.20;99.90
44886;DHT22;36669;51.428;21.162;2023-01-30T11:33:15;0.20;99.90
44886;DHT22;36669;51.428;21.162;2023-01-30T11:36:29;0.10;99.90
44886;DHT22;36669;51.428;21.162;2023-01-30T11:41:43;0.20;99.90
44886;DHT22;36669;51.428;21.162;2023-01-30T11:44:11;0.20;99.90
44886;DHT22;36669;51.428;21.162;2023-01-30T11:46:41;0.20;99.90
44886;DHT22;36669;51.428;21.162;2023-01-30T11:49:14;0.20;99.90
44886;DHT22;36669;51.428;21.162;2023-01-30T11:51:42;0.20;99.90
44886;DHT22;36669;51.428;21.162;2023-01-30T11:54:17;0.20;99.90
44886;DHT22;36669;51.428;21.162;2023-01-30T11:57:01;0.10;99.90
44886;DHT22;36669;51.428;21.162;2023-01-30T11:59:54;0.20;99.90
44886;DHT22;36669;51.428;21.162;2023-01-30T12:02:33;0.30;99.90
44886;DHT22;36669;51.428;21.162;2023-01-30T12:07:51;0.30;99.90
44886;DHT22;36669;51.428;21.162;2023-01-30T12:10:31;0.40;99.90
44886;DHT22;36669;51.428;21.162;2023-01-30T12:13:12;0.40;99.90
44886;DHT22;36669;51.428;21.162;2023-01-30T12:15:41;0.40;99.90
44886;DHT22;36669;51.428;21.162;2023-01-30T12:18:30;0.40;99.90
44886;DHT22;36669;51.428;21.162;2023-01-30T12:27:03;0.30;99.90
44886;DHT22;36669;51.428;21.162;2023-01-30T12:32:43;0.30;99.90
44886;DHT22;36669;51.428;21.162;2023-01-30T12:35:17;0.30;99.90
44886;DHT22;36669;51.428;21.162;2023-01-30T12:38:03;0.30;99.90
44886;DHT22;36669;51.428;21.162;2023-01-30T12:47:44;0.40;99.90
44886;DHT22;36669;51.428;21.162;2023-01-30T12:53:40;0.40;99.90
44886;DHT22;36669;51.428;21.162;2023-01-30T13:07:41;0.70;99.90
44886;DHT22;36669;51.428;21.162;2023-01-30T13:10:43;0.70;99.90
44886;DHT22;36669;51.428;21.162;2023-01-30T13:22:10;0.80;99.90
44886;DHT22;36669;51.428;21.162;2023-01-30T13:25:19;0.80;99.90
44886;DHT22;36669;51.428;21.162;2023-01-30T13:28:15;0.70;99.90
44886;DHT22;36669;51.428;21.162;2023-01-30T13:30:45;0.70;99.90
44886;DHT22;36669;51.428;21.162;2023-01-30T13:33:19;0.80;99.90
44886;DHT22;36669;51.428;21.162;2023-01-30T13:36:02;0.80;99.90
44886;DHT22;36669;51.428;21.162;2023-01-30T13:38:33;0.80;99.90
44886;DHT22;36669;51.428;21.162;2023-01-30T13:41:01;0.80;99.90
44886;DHT22;36669;51.428;21.162;2023-01-30T13:43:45;0.80;99.90
44886;DHT22;36669;51.428;21.162;2023-01-30T13:46:20;0.80;99.90
44886;DHT22;36669;51.428;21.162;2023-01-30T13:49:08;0.80;99.90
44886;DHT22;36669;51.428;21.162;2023-01-30T13:51:57;0.80;99.90
44886;DHT22;36669;51.428;21.162;2023-01-30T14:00:31;0.70;99.90
44886;DHT22;36669;51.428;21.162;2023-01-30T14:06:00;0.70;99.90
44886;DHT22;36669;51.428;21.162;2023-01-30T14:09:15;0.60;99.90
44886;DHT22;36669;51.428;21.162;2023-01-30T14:12:00;0.60;99.90
44886;DHT22;36669;51.428;21.162;2023-01-30T14:14:33;0.50;99.90
44886;DHT22;36669;51.428;21.162;2023-01-30T14:17:16;0.50;99.90
44886;DHT22;36669;51.428;21.162;2023-01-30T14:19:45;0.50;99.90
44886;DHT22;36669;51.428;21.162;2023-01-30T14:22:22;0.40;99.90
44886;DHT22;36669;51.428;21.162;2023-01-30T14:33:00;0.50;99.90
44886;DHT22;36669;51.428;21.162;2023-01-30T14:35:30;0.50;99.90
44886;DHT22;36669;51.428;21.162;2023-01-30T14:40:36;0.40;99.90
44886;DHT22;36669;51.428;21.162;2023-01-30T14:45:58;0.40;99.90
44886;DHT22;36669;51.428;21.162;2023-01-30T14:48:53;0.50;99.90
44886;DHT22;36669;51.428;21.162;2023-01-30T14:51:43;0.50;99.90
44886;DHT22;36669;51.428;21.162;2023-01-30T14:57:03;0.60;99.90
44886;DHT22;36669;51.428;21.162;2023-01-30T14:59:39;0.60;99.90
44886;DHT22;36669;51.428;21.162;2023-01-30T15:05:10;0.70;99.90
44886;DHT22;36669;51.428;21.162;2023-01-30T15:07:42;0.80;99.90
44886;DHT22;36669;51.428;21.162;2023-01-30T15:25:06;0.90;99.90
44886;DHT22;36669;51.428;21.162;2023-01-30T15:28:08;1.00;99.90
44886;DHT22;36669;51.428;21.162;2023-01-30T15:31:21;1.00;99.90
44886;DHT22;36669;51.428;21.162;2023-01-30T15:33:53;1.00;99.90
44886;DHT22;36669;51.428;21.162;2023-01-30T15:36:33;1.00;99.90
44886;DHT22;36669;51.428;21.162;2023-01-30T15:39:19;1.10;99.90
44886;DHT22;36669;51.428;21.162;2023-01-30T15:41:47;1.00;99.90
44886;DHT22;36669;51.428;21.162;2023-01-30T15:44:35;1.10;99.90
44886;DHT22;36669;51.428;21.162;2023-01-30T15:50:05;1.10;99.90
44886;DHT22;36669;51.428;21.162;2023-01-30T15:52:41;1.10;99.90
44886;DHT22;36669;51.428;21.162;2023-01-30T15:55:32;1.10;99.90
44886;DHT22;36669;51.428;21.162;2023-01-30T15:58:17;1.10;99.90
44886;DHT22;36669;51.428;21.162;2023-01-30T16:00:45;1.10;99.90
44886;DHT22;36669;51.428;21.162;2023-01-30T16:03:19;1.10;99.90
44886;DHT22;36669;51.428;21.162;2023-01-30T16:05:49;1.20;99.90
44886;DHT22;36669;51.428;21.162;2023-01-30T16:08:28;1.10;99.90
44886;DHT22;36669;51.428;21.162;2023-01-30T16:11:00;1.20;99.90
44886;DHT22;36669;51.428;21.162;2023-01-30T16:13:28;1.20;99.90
44886;DHT22;36669;51.428;21.162;2023-01-30T16:16:19;1.30;99.90
44886;DHT22;36669;51.428;21.162;2023-01-30T16:18:52;1.30;99.90
44886;DHT22;36669;51.428;21.162;2023-01-30T16:21:27;1.30;99.90
44886;DHT22;36669;51.428;21.162;2023-01-30T16:24:20;1.30;99.90
44886;DHT22;36669;51.428;21.162;2023-01-30T16:26:51;1.30;99.90
44886;DHT22;36669;51.428;21.162;2023-01-30T16:29:21;1.30;99.90
44886;DHT22;36669;51.428;21.162;2023-01-30T16:31:55;1.40;99.90
44886;DHT22;36669;51.428;21.162;2023-01-30T16:34:33;1.30;99.90
44886;DHT22;36669;51.428;21.162;2023-01-30T16:37:25;1.40;99.90
44886;DHT22;36669;51.428;21.162;2023-01-30T16:40:19;1.30;99.90
44886;DHT22;36669;51.428;21.162;2023-01-30T16:43:00;1.30;99.90
44886;DHT22;36669;51.428;21.162;2023-01-30T16:48:29;1.40;99.90
44886;DHT22;36669;51.428;21.162;2023-01-30T16:53:31;1.40;99.90
44886;DHT22;36669;51.428;21.162;2023-01-30T16:56:07;1.40;99.90
44886;DHT22;36669;51.428;21.162;2023-01-30T16:58:36;1.40;99.90
44886;DHT22;36669;51.428;21.162;2023-01-30T17:01:08;1.50;99.90
44886;DHT22;36669;51.428;21.162;2023-01-30T17:03:37;1.40;99.90
44886;DHT22;36669;51.428;21.162;2023-01-30T17:06:09;1.40;99.90
44886;DHT22;36669;51.428;21.162;2023-01-30T17:08:51;1.50;99.90
44886;DHT22;36669;51.428;21.162;2023-01-30T17:11:42;1.50;99.90
44886;DHT22;36669;51.428;21.162;2023-01-30T17:17:00;1.50;99.90
44886;DHT22;36669;51.428;21.162;2023-01-30T17:19:28;1.60;99.90
44886;DHT22;36669;51.428;21.162;2023-01-30T17:21:54;1.60;99.90
44886;DHT22;36669;51.428;21.162;2023-01-30T17:24:22;1.60;99.90
44886;DHT22;36669;51.428;21.162;2023-01-30T17:26:57;1.60;99.90
44886;DHT22;36669;51.428;21.162;2023-01-30T17:29:26;1.70;99.90
44886;DHT22;36669;51.428;21.162;2023-01-30T17:31:53;1.70;99.90
44886;DHT22;36669;51.428;21.162;2023-01-30T17:34:21;1.70;99.90
44886;DHT22;36669;51.428;21.162;2023-01-30T17:36:51;1.70;99.90
44886;DHT22;36669;51.428;21.162;2023-01-30T17:39:20;1.70;99.90
44886;DHT22;36669;51.428;21.162;2023-01-30T17:41:50;1.70;99.90
44886;DHT22;36669;51.428;21.162;2023-01-30T17:44:17;1.80;99.90
44886;DHT22;36669;51.428;21.162;2023-01-30T17:46:47;1.80;99.90
44886;DHT22;36669;51.428;21.162;2023-01-30T17:49:23;1.80;99.90
44886;DHT22;36669;51.428;21.162;2023-01-30T17:51:53;1.80;99.90
44886;DHT22;36669;51.428;21.162;2023-01-30T17:54:21;1.80;99.90
44886;DHT22;36669;51.428;21.162;2023-01-30T17:56:56;1.80;99.90
44886;DHT22;36669;51.428;21.162;2023-01-30T17:59:24;1.80;99.90
44886;DHT22;36669;51.428;21.162;2023-01-30T18:01:52;1.90;99.90
44886;DHT22;36669;51.428;21.162;2023-01-30T18:04:19;1.90;99.90
44886;DHT22;36669;51.428;21.162;2023-01-30T18:06:49;1.90;99.90
44886;DHT22;36669;51.428;21.162;2023-01-30T18:09:21;1.90;99.90
44886;DHT22;36669;51.428;21.162;2023-01-30T18:11:49;1.90;99.90
44886;DHT22;36669;51.428;21.162;2023-01-30T18:14:17;1.90;99.90
44886;DHT22;36669;51.428;21.162;2023-01-30T18:16:45;1.90;99.90
44886;DHT22;36669;51.428;21.162;2023-01-30T18:19:14;1.90;99.90
44886;DHT22;36669;51.428;21.162;2023-01-30T18:21:42;1.90;99.90
44886;DHT22;36669;51.428;21.162;2023-01-30T18:24:12;2.00;99.90
44886;DHT22;36669;51.428;21.162;2023-01-30T18:26:41;2.00;99.90
44886;DHT22;36669;51.428;21.162;2023-01-30T18:29:08;2.00;99.90
44886;DHT22;36669;51.428;21.162;2023-01-30T18:31:36;2.00;99.90
44886;DHT22;36669;51.428;21.162;2023-01-30T18:34:03;2.00;99.90
44886;DHT22;36669;51.428;21.162;2023-01-30T18:36:33;2.00;99.90
44886;DHT22;36669;51.428;21.162;2023-01-30T18:39:00;1.90;99.90
44886;DHT22;36669;51.428;21.162;2023-01-30T18:41:29;1.90;99.90
44886;DHT22;36669;51.428;21.162;2023-01-30T18:44:11;1.90;99.90
44886;DHT22;36669;51.428;21.162;2023-01-30T18:46:39;1.80;99.90
44886;DHT22;36669;51.428;21.162;2023-01-30T18:49:07;1.80;99.90